Time;durP1;ratioP1;P1;durP2;ratioP2;P2;SDS_P1;SDS_P2;PMS_P1;PMS_P2;Temp;Humidity;BMP_temperature;BMP_pressure;BME280_temperature;BME280_humidity;BME280_pressure;Samples;Min_cycle;Max_cycle;Signal;HPM_P1;HPM_P2
2021/01/21 00:00:36;;;;;;;3.53;1.67;;;;;;;;;;4951017;29;20039;-82
2021/01/21 00:03:03;;;;;;;6.07;1.77;;;;;;;;;;4934361;29;20043;-81
2021/01/21 00:05:29;;;;;;;2.30;1.47;;;;;;;;;;4950053;29;20039;-81
2021/01/21 00:07:55;;;;;;;1.97;1.27;;;;;;;;;;4950785;29;20059;-80
2021/01/21 00:10:32;;;;;;;3.97;1.60;;;;;;;;;;4932369;29;20090;-81
2021/01/21 00:13:34;;;;;;;3.40;1.70;;;;;;;;;;4932996;29;20501;-82
2021/01/21 00:16:01;;;;;;;3.60;1.83;;;;;;;;;;4966927;29;20042;-81
2021/01/21 00:18:27;;;;;;;2.73;1.70;;;;;;;;;;4948393;29;20461;-82
2021/01/21 00:20:53;;;;;;;5.70;2.37;;;;;;;;;;4949048;29;20031;-81
2021/01/21 00:23:19;;;;;;;4.70;1.70;;;;;;;;;;4935847;29;20035;-81
2021/01/21 00:25:50;;;;;;;3.67;1.63;;;;;;;;;;4961282;28;20058;-81
2021/01/21 00:28:50;;;;;;;5.27;1.67;;;;;;;;;;4955930;29;20393;-82
2021/01/21 00:31:16;;;;;;;4.70;1.40;;;;;;;;;;4962818;29;20063;-82
2021/01/21 00:33:42;;;;;;;3.90;1.90;;;;;;;;;;4971642;29;20054;-81
2021/01/21 00:36:09;;;;;;;2.75;1.40;;;;;;;;;;4945912;29;20091;-80
2021/01/21 00:38:35;;;;;;;4.80;1.60;;;;;;;;;;4945762;29;20061;-81
2021/01/21 00:41:01;;;;;;;3.07;1.70;;;;;;;;;;4962916;29;20048;-81
2021/01/21 00:43:27;;;;;;;2.57;1.23;;;;;;;;;;4946975;28;20448;-81
2021/01/21 00:45:55;;;;;;;3.23;1.40;;;;;;;;;;4933100;29;20134;-81
2021/01/21 00:48:21;;;;;;;2.53;1.50;;;;;;;;;;4965120;29;20032;-80
2021/01/21 00:50:47;;;;;;;4.50;1.40;;;;;;;;;;4963974;29;20126;-81
2021/01/21 00:53:28;;;;;;;4.07;1.53;;;;;;;;;;4963590;29;20074;-81
2021/01/21 00:59:24;;;;;;;4.77;1.67;;;;;;;;;;4944170;29;20139;-81
2021/01/21 01:01:50;;;;;;;7.97;3.03;;;;;;;;;;4927187;29;20049;-82
2021/01/21 01:04:16;;;;;;;6.40;2.37;;;;;;;;;;4912189;29;20048;-80
2021/01/21 01:06:42;;;;;;;9.03;2.70;;;;;;;;;;4945259;29;20040;-81
2021/01/21 01:09:08;;;;;;;2.50;1.40;;;;;;;;;;4929026;29;20537;-81
2021/01/21 01:11:35;;;;;;;8.27;2.43;;;;;;;;;;4946272;29;20036;-80
2021/01/21 01:14:20;;;;;;;4.23;1.50;;;;;;;;;;4930120;29;20086;-80
2021/01/21 01:16:46;;;;;;;5.63;2.20;;;;;;;;;;4949155;29;20035;-82
2021/01/21 01:19:12;;;;;;;3.53;1.63;;;;;;;;;;4930744;29;20047;-81
2021/01/21 01:21:40;;;;;;;5.83;1.90;;;;;;;;;;4913492;29;20040;-81
2021/01/21 01:27:11;;;;;;;4.57;2.00;;;;;;;;;;4945778;29;20039;-82
2021/01/21 01:29:38;;;;;;;6.67;2.37;;;;;;;;;;4933021;29;20040;-81
2021/01/21 01:32:04;;;;;;;8.10;3.00;;;;;;;;;;4935934;29;20087;-82
2021/01/21 01:34:30;;;;;;;5.20;1.73;;;;;;;;;;4933668;29;20095;-83
2021/01/21 01:37:11;;;;;;;6.00;1.90;;;;;;;;;;4953255;29;20044;-81
2021/01/21 01:39:37;;;;;;;4.63;2.37;;;;;;;;;;4931185;29;20094;-81
2021/01/21 01:42:10;;;;;;;3.43;1.67;;;;;;;;;;4912715;29;20112;-79
2021/01/21 01:44:37;;;;;;;5.97;1.90;;;;;;;;;;4929928;28;20055;-80
2021/01/21 01:47:03;;;;;;;6.30;2.00;;;;;;;;;;4960464;28;20053;-80
2021/01/21 01:52:33;;;;;;;4.97;2.00;;;;;;;;;;4983021;28;20062;-80
2021/01/21 01:54:59;;;;;;;2.70;0.93;;;;;;;;;;4965488;28;20046;-80
2021/01/21 01:57:26;;;;;;;6.93;1.73;;;;;;;;;;4983103;28;20039;-80
2021/01/21 01:59:54;;;;;;;4.07;1.30;;;;;;;;;;4966142;28;20046;-81
2021/01/21 02:02:21;;;;;;;4.97;1.70;;;;;;;;;;4966630;28;20035;-81
2021/01/21 02:04:47;;;;;;;6.20;1.67;;;;;;;;;;4966605;28;20038;-79
2021/01/21 02:07:13;;;;;;;4.07;1.80;;;;;;;;;;4952091;28;20066;-80
2021/01/21 02:09:40;;;;;;;2.37;1.57;;;;;;;;;;4967898;28;20456;-80
2021/01/21 02:12:09;;;;;;;4.40;1.20;;;;;;;;;;4968904;28;20070;-79
2021/01/21 02:14:35;;;;;;;5.90;2.10;;;;;;;;;;4987021;28;20049;-80
2021/01/21 02:20:40;;;;;;;2.07;1.30;;;;;;;;;;4930151;29;20063;-81
2021/01/21 02:23:24;;;;;;;6.07;1.48;;;;;;;;;;4921318;29;20063;-81
2021/01/21 02:25:51;;;;;;;1.77;0.98;;;;;;;;;;4914367;29;20051;-80
2021/01/21 02:28:30;;;;;;;3.80;1.57;;;;;;;;;;4911750;29;20036;-81
2021/01/21 02:30:56;;;;;;;5.90;2.20;;;;;;;;;;4915647;29;20051;-80
2021/01/21 02:33:27;;;;;;;4.60;1.87;;;;;;;;;;4936008;29;20044;-78
2021/01/21 02:35:54;;;;;;;4.53;1.67;;;;;;;;;;4936528;29;20084;-81
2021/01/21 02:38:22;;;;;;;7.07;1.73;;;;;;;;;;4920436;29;20080;-82
2021/01/21 02:40:49;;;;;;;4.63;1.73;;;;;;;;;;4919587;29;20046;-80
2021/01/21 02:43:15;;;;;;;8.00;1.93;;;;;;;;;;4918090;29;20024;-81
2021/01/21 02:45:41;;;;;;;5.27;1.90;;;;;;;;;;4934865;29;20064;-80
2021/01/21 02:48:07;;;;;;;6.23;2.40;;;;;;;;;;4892644;29;20072;-78
2021/01/21 02:50:33;;;;;;;5.30;1.70;;;;;;;;;;4912908;28;20484;-78
2021/01/21 02:53:01;;;;;;;8.13;2.67;;;;;;;;;;4952458;28;20047;-81
2021/01/21 02:55:32;;;;;;;10.07;3.03;;;;;;;;;;4969052;28;20031;-78
2021/01/21 02:57:58;;;;;;;5.07;2.23;;;;;;;;;;4971650;28;20038;-76
2021/01/21 03:00:24;;;;;;;6.33;2.60;;;;;;;;;;4990539;28;20030;-77
2021/01/21 03:02:52;;;;;;;19.83;4.33;;;;;;;;;;4975161;28;20039;-77
2021/01/21 03:05:19;;;;;;;8.77;3.00;;;;;;;;;;4973785;28;20038;-79
2021/01/21 03:07:45;;;;;;;17.07;3.87;;;;;;;;;;4988826;28;20039;-80
2021/01/21 03:10:11;;;;;;;9.50;2.80;;;;;;;;;;4949311;28;20085;-75
2021/01/21 03:12:38;;;;;;;13.77;3.00;;;;;;;;;;4980376;28;20043;-79
2021/01/21 03:15:05;;;;;;;9.33;3.43;;;;;;;;;;4963754;28;20043;-79
2021/01/21 03:17:31;;;;;;;12.30;3.33;;;;;;;;;;4980435;28;20041;-79
2021/01/21 03:19:57;;;;;;;12.40;3.27;;;;;;;;;;4948441;28;20130;-80
2021/01/21 03:22:23;;;;;;;13.70;3.57;;;;;;;;;;4965001;28;20039;-79
2021/01/21 03:24:49;;;;;;;11.30;2.87;;;;;;;;;;4949898;28;20057;-78
2021/01/21 03:27:15;;;;;;;13.07;3.00;;;;;;;;;;4968272;28;20139;-77
2021/01/21 03:29:41;;;;;;;13.03;3.13;;;;;;;;;;4985563;28;20043;-79
2021/01/21 03:32:07;;;;;;;14.80;2.43;;;;;;;;;;4953866;28;20139;-78
2021/01/21 03:34:33;;;;;;;19.23;4.13;;;;;;;;;;4963980;28;20506;-78
2021/01/21 03:36:59;;;;;;;14.73;2.57;;;;;;;;;;4965754;28;20034;-79
2021/01/21 03:39:25;;;;;;;20.23;4.53;;;;;;;;;;4983939;28;20031;-80
2021/01/21 03:41:52;;;;;;;18.47;3.97;;;;;;;;;;4966707;28;20043;-79
2021/01/21 03:44:19;;;;;;;22.80;4.53;;;;;;;;;;4967767;28;20051;-80
2021/01/21 03:46:45;;;;;;;23.13;5.10;;;;;;;;;;4970372;28;20135;-78
2021/01/21 03:49:11;;;;;;;24.23;4.23;;;;;;;;;;4954675;28;20039;-78
2021/01/21 03:51:37;;;;;;;24.27;5.20;;;;;;;;;;4952692;28;20070;-80
2021/01/21 03:54:03;;;;;;;31.10;4.60;;;;;;;;;;4955563;28;20039;-81
2021/01/21 03:56:29;;;;;;;28.07;5.23;;;;;;;;;;4956228;28;20066;-79
2021/01/21 03:58:55;;;;;;;32.17;5.47;;;;;;;;;;4959003;28;20039;-81
2021/01/21 04:01:21;;;;;;;27.30;6.77;;;;;;;;;;4977131;28;20050;-79
2021/01/21 04:03:48;;;;;;;30.73;5.20;;;;;;;;;;4960797;28;20087;-81
2021/01/21 04:06:14;;;;;;;25.33;6.40;;;;;;;;;;4979212;28;20118;-80
2021/01/21 04:08:40;;;;;;;30.90;5.90;;;;;;;;;;4961597;28;20055;-83
2021/01/21 04:11:06;;;;;;;28.67;6.00;;;;;;;;;;4997922;28;20035;-79
2021/01/21 04:13:32;;;;;;;24.53;7.07;;;;;;;;;;4977601;28;20043;-82
2021/01/21 04:15:58;;;;;;;33.93;6.17;;;;;;;;;;4977645;28;20046;-81
2021/01/21 04:18:24;;;;;;;29.47;4.93;;;;;;;;;;4961526;28;20483;-82
2021/01/21 04:20:50;;;;;;;32.67;5.77;;;;;;;;;;4960969;28;20039;-83
2021/01/21 04:23:16;;;;;;;31.57;7.20;;;;;;;;;;4961806;28;20554;-81
2021/01/21 04:25:42;;;;;;;27.57;6.23;;;;;;;;;;4975814;28;20043;-79
2021/01/21 04:28:08;;;;;;;31.40;7.57;;;;;;;;;;4968821;28;20047;-80
2021/01/21 04:30:34;;;;;;;30.17;6.07;;;;;;;;;;4955066;28;20038;-82
2021/01/21 04:33:00;;;;;;;29.67;6.13;;;;;;;;;;4951598;28;20054;-81
2021/01/21 04:35:26;;;;;;;37.60;8.93;;;;;;;;;;4967040;28;20043;-78
2021/01/21 04:37:54;;;;;;;31.10;6.87;;;;;;;;;;4967404;28;20039;-80
2021/01/21 04:40:20;;;;;;;35.50;5.87;;;;;;;;;;4952324;28;20034;-81
2021/01/21 04:42:47;;;;;;;36.93;7.40;;;;;;;;;;4986335;28;20030;-80
2021/01/21 04:45:13;;;;;;;38.67;8.70;;;;;;;;;;4985504;28;20056;-79
2021/01/21 04:47:39;;;;;;;33.63;6.17;;;;;;;;;;4955411;28;20520;-81
2021/01/21 04:50:06;;;;;;;27.40;5.10;;;;;;;;;;4973284;28;20052;-81
2021/01/21 04:52:34;;;;;;;22.83;4.53;;;;;;;;;;4965482;28;20106;-80
2021/01/21 04:55:03;;;;;;;25.90;3.83;;;;;;;;;;4993022;28;20409;-82
2021/01/21 04:57:32;;;;;;;21.77;3.17;;;;;;;;;;4998818;28;20022;-82
2021/01/21 04:59:59;;;;;;;15.00;3.10;;;;;;;;;;4990102;28;20035;-79
2021/01/21 05:02:25;;;;;;;21.73;3.40;;;;;;;;;;4953558;28;20051;-79
2021/01/21 05:04:51;;;;;;;14.03;3.20;;;;;;;;;;4973166;28;20122;-81
2021/01/21 05:07:17;;;;;;;23.30;3.87;;;;;;;;;;4973291;28;20058;-83
2021/01/21 05:09:43;;;;;;;20.57;3.47;;;;;;;;;;4974787;28;20080;-79
2021/01/21 05:12:10;;;;;;;18.30;3.87;;;;;;;;;;4957924;28;20043;-81
2021/01/21 05:14:36;;;;;;;20.70;4.23;;;;;;;;;;4974761;28;20035;-80
2021/01/21 05:17:02;;;;;;;17.90;3.17;;;;;;;;;;4953735;28;20196;-80
2021/01/21 05:19:31;;;;;;;16.80;3.20;;;;;;;;;;4970477;28;20038;-79
2021/01/21 05:21:57;;;;;;;11.73;3.07;;;;;;;;;;4973179;28;20049;-80
2021/01/21 05:24:26;;;;;;;16.30;3.50;;;;;;;;;;4973322;28;20064;-81
2021/01/21 05:26:54;;;;;;;22.17;4.20;;;;;;;;;;4974126;28;20034;-80
2021/01/21 05:29:20;;;;;;;14.63;3.10;;;;;;;;;;4970924;28;20034;-81
2021/01/21 05:31:48;;;;;;;24.30;3.03;;;;;;;;;;4954678;28;20051;-82
2021/01/21 05:34:17;;;;;;;17.07;3.03;;;;;;;;;;4970571;28;20066;-83
2021/01/21 05:36:45;;;;;;;19.50;3.80;;;;;;;;;;4953630;28;20043;-81
2021/01/21 05:39:11;;;;;;;19.30;2.93;;;;;;;;;;4968804;28;20035;-83
2021/01/21 05:41:37;;;;;;;21.70;4.50;;;;;;;;;;4985339;28;20035;-79
2021/01/21 05:44:05;;;;;;;18.63;3.77;;;;;;;;;;4951175;28;20039;-82
2021/01/21 05:46:35;;;;;;;18.50;3.20;;;;;;;;;;4986726;28;20055;-81
2021/01/21 05:49:01;;;;;;;24.23;4.43;;;;;;;;;;4974071;28;20039;-82
2021/01/21 05:51:30;;;;;;;18.57;4.20;;;;;;;;;;4978086;28;20043;-82
2021/01/21 05:53:57;;;;;;;23.27;3.50;;;;;;;;;;4989426;28;20066;-81
2021/01/21 05:56:24;;;;;;;15.93;3.47;;;;;;;;;;4968542;28;20151;-83
2021/01/21 05:58:51;;;;;;;17.27;3.00;;;;;;;;;;4970621;28;20035;-82
2021/01/21 06:01:19;;;;;;;20.27;3.80;;;;;;;;;;4970209;28;20039;-80
2021/01/21 06:03:45;;;;;;;21.53;3.33;;;;;;;;;;4990853;28;20042;-83
2021/01/21 06:06:11;;;;;;;26.83;4.30;;;;;;;;;;4978147;28;20042;-81
2021/01/21 06:08:41;;;;;;;12.80;3.40;;;;;;;;;;4990268;28;20031;-80
2021/01/21 06:11:08;;;;;;;20.50;3.37;;;;;;;;;;4991627;28;20035;-83
2021/01/21 06:13:44;;;;;;;15.00;3.13;;;;;;;;;;4991835;28;20060;-82
2021/01/21 06:16:11;;;;;;;7.03;1.87;;;;;;;;;;4973886;28;20034;-83
2021/01/21 06:18:37;;;;;;;14.87;2.90;;;;;;;;;;4974511;28;20047;-84
2021/01/21 06:21:03;;;;;;;19.20;3.70;;;;;;;;;;4972944;28;20046;-81
2021/01/21 06:23:32;;;;;;;14.30;3.30;;;;;;;;;;4969614;28;20045;-83
2021/01/21 06:25:59;;;;;;;18.90;3.50;;;;;;;;;;4985408;28;20034;-81
2021/01/21 06:28:26;;;;;;;20.37;3.70;;;;;;;;;;4951756;28;20097;-81
2021/01/21 06:30:53;;;;;;;22.47;3.73;;;;;;;;;;4985093;28;20068;-80
2021/01/21 06:33:22;;;;;;;18.37;3.47;;;;;;;;;;4969283;28;20038;-82
2021/01/21 06:35:52;;;;;;;18.33;3.43;;;;;;;;;;4986054;28;20031;-81
2021/01/21 06:38:22;;;;;;;16.70;2.90;;;;;;;;;;4967641;28;20058;-82
2021/01/21 06:40:50;;;;;;;20.03;3.57;;;;;;;;;;4968429;28;20031;-80
2021/01/21 06:43:20;;;;;;;15.13;2.20;;;;;;;;;;4986496;28;20035;-80
2021/01/21 06:45:47;;;;;;;20.43;4.00;;;;;;;;;;4968708;28;20142;-82
2021/01/21 06:48:13;;;;;;;15.23;4.07;;;;;;;;;;4970330;28;20046;-79
2021/01/21 06:50:40;;;;;;;17.40;3.77;;;;;;;;;;4969931;28;20031;-81
2021/01/21 06:53:07;;;;;;;16.50;3.53;;;;;;;;;;4955894;28;20059;-80
2021/01/21 06:55:35;;;;;;;23.40;4.67;;;;;;;;;;4973261;28;20035;-81
2021/01/21 06:58:01;;;;;;;27.03;3.70;;;;;;;;;;4993446;28;20034;-84
2021/01/21 07:00:41;;;;;;;21.37;3.93;;;;;;;;;;4977328;28;20118;-83
2021/01/21 07:03:08;;;;;;;15.53;3.17;;;;;;;;;;4977801;28;20031;-83
2021/01/21 07:05:34;;;;;;;18.57;3.43;;;;;;;;;;4973626;28;20037;-80
2021/01/21 07:08:01;;;;;;;10.23;2.73;;;;;;;;;;4974908;28;20062;-84
2021/01/21 07:10:41;;;;;;;19.07;3.07;;;;;;;;;;4988155;28;20035;-84
2021/01/21 07:13:34;;;;;;;16.43;4.33;;;;;;;;;;4964345;28;20073;-80
2021/01/21 07:16:09;;;;;;;15.70;4.20;;;;;;;;;;4963230;28;20106;-82
2021/01/21 07:18:36;;;;;;;16.70;4.13;;;;;;;;;;4987414;28;20061;-81
2021/01/21 07:21:13;;;;;;;19.00;2.50;;;;;;;;;;4955611;28;20073;-84
2021/01/21 07:23:44;;;;;;;19.37;3.33;;;;;;;;;;4971375;28;20093;-82
2021/01/21 07:26:30;;;;;;;17.57;3.93;;;;;;;;;;4963965;28;20102;-78
2021/01/21 07:28:56;;;;;;;;;;;;;;;;;;4965432;28;20039;-82
2021/01/21 07:31:22;;;;;;;17.70;3.77;;;;;;;;;;4966905;28;19933;-80
2021/01/21 07:33:48;;;;;;;14.60;2.93;;;;;;;;;;4950637;28;20043;-83
2021/01/21 07:36:32;;;;;;;18.80;3.47;;;;;;;;;;4951937;28;20042;-80
2021/01/21 07:38:58;;;;;;;17.10;3.70;;;;;;;;;;4984428;28;20031;-83
2021/01/21 07:41:42;;;;;;;18.47;3.03;;;;;;;;;;4951886;28;20062;-81
2021/01/21 07:44:08;;;;;;;15.43;3.20;;;;;;;;;;4969848;28;20035;-82
2021/01/21 07:46:34;;;;;;;21.33;3.73;;;;;;;;;;4968558;28;20600;-81
2021/01/21 07:49:19;;;;;;;17.17;3.43;;;;;;;;;;4968164;28;20069;-81
2021/01/21 07:51:59;;;;;;;17.73;3.67;;;;;;;;;;4967829;28;20038;-82
2021/01/21 07:54:26;;;;;;;12.87;3.40;;;;;;;;;;4984714;28;20117;-80
2021/01/21 07:56:52;;;;;;;12.70;2.37;;;;;;;;;;4969185;28;20031;-80
2021/01/21 07:59:18;;;;;;;14.40;3.40;;;;;;;;;;4951894;28;20408;-81
2021/01/21 08:01:57;;;;;;;17.27;3.13;;;;;;;;;;4969410;28;20082;-79
2021/01/21 08:04:23;;;;;;;16.90;2.60;;;;;;;;;;4970362;28;20041;-85
2021/01/21 08:06:57;;;;;;;16.43;3.00;;;;;;;;;;4955298;28;20043;-82
2021/01/21 08:09:23;;;;;;;20.00;4.50;;;;;;;;;;4988016;28;20372;-82
2021/01/21 08:11:50;;;;;;;19.93;3.33;;;;;;;;;;4974628;28;20082;-84
2021/01/21 08:14:17;;;;;;;19.73;4.90;;;;;;;;;;4973804;28;20039;-83
2021/01/21 08:16:43;;;;;;;19.40;4.20;;;;;;;;;;4974802;28;20026;-80
2021/01/21 08:19:09;;;;;;;24.97;3.60;;;;;;;;;;4974655;28;20054;-78
2021/01/21 08:21:36;;;;;;;17.03;3.47;;;;;;;;;;4974883;28;20039;-79
2021/01/21 08:24:08;;;;;;;16.83;2.90;;;;;;;;;;4978090;28;20039;-84
2021/01/21 08:26:35;;;;;;;20.33;3.07;;;;;;;;;;4967635;28;20035;-81
2021/01/21 08:29:01;;;;;;;18.07;2.83;;;;;;;;;;4969076;28;20098;-84
2021/01/21 08:31:34;;;;;;;18.83;3.57;;;;;;;;;;4967727;28;20078;-81
2021/01/21 08:34:01;;;;;;;21.93;3.17;;;;;;;;;;4991469;28;20066;-83
2021/01/21 08:36:28;;;;;;;19.83;4.60;;;;;;;;;;4989210;28;20035;-81
2021/01/21 08:38:55;;;;;;;17.50;2.83;;;;;;;;;;4972804;28;20035;-84
2021/01/21 08:41:21;;;;;;;12.27;2.40;;;;;;;;;;4971835;28;20038;-82
2021/01/21 08:43:48;;;;;;;15.77;3.17;;;;;;;;;;4983713;28;20026;-79
2021/01/21 08:46:18;;;;;;;17.63;3.17;;;;;;;;;;4950781;28;20118;-81
2021/01/21 08:48:44;;;;;;;11.50;2.50;;;;;;;;;;4973996;28;20046;-82
2021/01/21 08:51:26;;;;;;;19.77;4.43;;;;;;;;;;4973435;28;20050;-84
2021/01/21 08:53:52;;;;;;;17.80;3.90;;;;;;;;;;4967563;28;20102;-80
2021/01/21 08:56:18;;;;;;;25.33;4.20;;;;;;;;;;4965336;28;20127;-84
2021/01/21 08:58:44;;;;;;;21.00;5.13;;;;;;;;;;4966286;28;20058;-82
2021/01/21 09:01:11;;;;;;;20.33;3.30;;;;;;;;;;4968851;28;20043;-84
2021/01/21 09:03:45;;;;;;;16.60;2.93;;;;;;;;;;4966551;28;20050;-80
2021/01/21 09:06:12;;;;;;;24.37;2.83;;;;;;;;;;4968228;28;20035;-80
2021/01/21 09:09:09;;;;;;;25.20;4.33;;;;;;;;;;4966506;28;20042;-83
2021/01/21 09:11:38;;;;;;;25.87;4.77;;;;;;;;;;4975304;28;20034;-79
2021/01/21 09:14:14;;;;;;;20.60;3.70;;;;;;;;;;4960320;28;20038;-82
2021/01/21 09:16:46;;;;;;;17.10;3.67;;;;;;;;;;4976828;28;20055;-83
2021/01/21 09:19:14;;;;;;;19.33;4.70;;;;;;;;;;4973789;28;20041;-80
2021/01/21 09:22:01;;;;;;;20.67;3.40;;;;;;;;;;4969922;28;20040;-84
2021/01/21 09:24:27;;;;;;;18.47;3.23;;;;;;;;;;4976362;28;20030;-80
2021/01/21 09:27:12;;;;;;;18.40;2.53;;;;;;;;;;4969101;28;20093;-81
2021/01/21 09:29:48;;;;;;;15.23;3.40;;;;;;;;;;4966191;28;20170;-81
2021/01/21 09:32:14;;;;;;;14.93;3.10;;;;;;;;;;4966583;28;20039;-82
2021/01/21 09:34:50;;;;;;;17.90;2.77;;;;;;;;;;4967916;28;20042;-80
2021/01/21 09:37:17;;;;;;;13.10;2.80;;;;;;;;;;4968682;28;20488;-82
2021/01/21 09:39:43;;;;;;;17.07;3.10;;;;;;;;;;4955882;28;20045;-79
2021/01/21 09:42:09;;;;;;;12.07;3.03;;;;;;;;;;4968664;28;20043;-85
2021/01/21 09:44:35;;;;;;;13.77;2.67;;;;;;;;;;4970021;28;20035;-79
2021/01/21 09:47:05;;;;;;;16.73;3.10;;;;;;;;;;4981624;28;20058;-82
2021/01/21 09:49:31;;;;;;;12.80;2.93;;;;;;;;;;4950136;28;20043;-83
2021/01/21 09:51:57;;;;;;;15.70;3.67;;;;;;;;;;4982534;28;20096;-82
2021/01/21 09:54:23;;;;;;;17.37;2.90;;;;;;;;;;4966684;28;20046;-82
2021/01/21 09:56:51;;;;;;;14.70;3.07;;;;;;;;;;4964493;28;20034;-80
2021/01/21 09:59:17;;;;;;;13.40;2.30;;;;;;;;;;4963482;28;20035;-80
2021/01/21 10:01:43;;;;;;;11.20;2.27;;;;;;;;;;4950301;28;20134;-79
2021/01/21 10:04:09;;;;;;;16.87;3.20;;;;;;;;;;4949993;28;20062;-78
2021/01/21 10:06:35;;;;;;;23.60;2.97;;;;;;;;;;4950728;28;20042;-81
2021/01/21 10:09:01;;;;;;;12.90;2.60;;;;;;;;;;4950864;28;20389;-82
2021/01/21 10:11:27;;;;;;;23.07;4.80;;;;;;;;;;4965988;28;20039;-81
2021/01/21 10:13:53;;;;;;;21.10;3.20;;;;;;;;;;4967125;28;20043;-79
2021/01/21 10:16:19;;;;;;;19.47;3.67;;;;;;;;;;4967342;28;20046;-82
2021/01/21 10:18:45;;;;;;;18.37;4.63;;;;;;;;;;4954243;28;20039;-82
2021/01/21 10:21:11;;;;;;;14.83;3.37;;;;;;;;;;4988940;28;20047;-83
2021/01/21 10:23:37;;;;;;;18.63;3.50;;;;;;;;;;4988907;28;20039;-80
2021/01/21 10:26:03;;;;;;;14.83;3.57;;;;;;;;;;4955951;28;20041;-82
2021/01/21 10:28:29;;;;;;;23.63;4.43;;;;;;;;;;4990950;28;20166;-79
2021/01/21 10:30:55;;;;;;;17.87;3.40;;;;;;;;;;4974181;28;20043;-80
2021/01/21 10:33:21;;;;;;;20.20;4.37;;;;;;;;;;4976134;28;20075;-80
2021/01/21 10:35:47;;;;;;;15.60;5.53;;;;;;;;;;4973693;28;20038;-79
2021/01/21 10:38:13;;;;;;;12.87;2.63;;;;;;;;;;4976765;28;20102;-83
2021/01/21 10:40:40;;;;;;;13.40;2.73;;;;;;;;;;4951692;28;20050;-82
2021/01/21 10:43:06;;;;;;;15.07;3.33;;;;;;;;;;4966139;28;20046;-82
2021/01/21 10:45:32;;;;;;;12.50;3.13;;;;;;;;;;4965794;28;20121;-82
2021/01/21 10:47:58;;;;;;;10.40;2.23;;;;;;;;;;4950816;28;20093;-81
2021/01/21 10:50:27;;;;;;;11.80;2.37;;;;;;;;;;4984296;28;20039;-82
2021/01/21 10:52:54;;;;;;;10.23;1.83;;;;;;;;;;4983161;28;20050;-81
2021/01/21 10:55:36;;;;;;;13.07;2.20;;;;;;;;;;4967641;28;20058;-81
2021/01/21 10:58:06;;;;;;;9.60;2.10;;;;;;;;;;4986469;28;20061;-83
2021/01/21 11:00:33;;;;;;;13.37;2.53;;;;;;;;;;4966454;28;20031;-79
2021/01/21 11:02:59;;;;;;;13.77;2.40;;;;;;;;;;4966047;28;20043;-83
2021/01/21 11:05:25;;;;;;;18.37;3.07;;;;;;;;;;4950670;28;20046;-82
2021/01/21 11:07:52;;;;;;;12.00;3.13;;;;;;;;;;4972031;28;20061;-81
2021/01/21 11:10:18;;;;;;;16.40;2.80;;;;;;;;;;4977280;28;20043;-83
2021/01/21 11:12:45;;;;;;;13.90;3.33;;;;;;;;;;4974119;28;20046;-85
2021/01/21 11:15:12;;;;;;;12.67;2.23;;;;;;;;;;4977498;28;20073;-83
2021/01/21 11:17:38;;;;;;;16.70;3.20;;;;;;;;;;4966929;28;20035;-82
2021/01/21 11:20:04;;;;;;;11.00;2.60;;;;;;;;;;4969136;28;20031;-80
2021/01/21 11:22:30;;;;;;;7.67;1.43;;;;;;;;;;4965935;28;20030;-83
2021/01/21 11:24:56;;;;;;;9.03;2.43;;;;;;;;;;4966214;28;20035;-81
2021/01/21 11:27:22;;;;;;;9.87;2.43;;;;;;;;;;4968541;28;20137;-84
2021/01/21 11:29:48;;;;;;;12.20;2.80;;;;;;;;;;4985824;28;20031;-81
2021/01/21 11:32:14;;;;;;;8.23;2.23;;;;;;;;;;4970930;28;20110;-82
2021/01/21 11:34:40;;;;;;;13.00;2.20;;;;;;;;;;4968958;28;20043;-82
2021/01/21 11:37:06;;;;;;;10.50;2.20;;;;;;;;;;4967514;28;20045;-82
2021/01/21 11:39:32;;;;;;;12.50;2.23;;;;;;;;;;4968655;28;20034;-82
2021/01/21 11:41:58;;;;;;;14.17;2.67;;;;;;;;;;4980142;28;20039;-82
2021/01/21 11:44:24;;;;;;;13.77;2.07;;;;;;;;;;4947663;28;20039;-82
2021/01/21 11:46:51;;;;;;;9.43;2.30;;;;;;;;;;4945593;28;20062;-81
2021/01/21 11:49:17;;;;;;;8.70;2.27;;;;;;;;;;4948494;28;20047;-82
2021/01/21 11:51:43;;;;;;;12.27;2.57;;;;;;;;;;4963462;28;20050;-81
2021/01/21 11:54:09;;;;;;;7.90;2.00;;;;;;;;;;4963027;28;20045;-81
2021/01/21 11:56:35;;;;;;;7.70;1.87;;;;;;;;;;4965016;28;20035;-82
2021/01/21 11:59:01;;;;;;;15.90;2.77;;;;;;;;;;4963705;28;20473;-78
2021/01/21 12:01:27;;;;;;;11.97;1.90;;;;;;;;;;4966760;28;20066;-83
2021/01/21 12:03:54;;;;;;;10.33;1.97;;;;;;;;;;4950380;28;20042;-82
2021/01/21 12:06:20;;;;;;;11.23;2.43;;;;;;;;;;4967408;28;20039;-84
2021/01/21 12:08:46;;;;;;;11.57;2.57;;;;;;;;;;4967160;28;20106;-79
2021/01/21 12:11:12;;;;;;;11.23;2.27;;;;;;;;;;4964712;28;20041;-81
2021/01/21 12:13:38;;;;;;;11.87;2.83;;;;;;;;;;4967748;28;20047;-82
2021/01/21 12:16:04;;;;;;;11.83;2.97;;;;;;;;;;4965751;28;20050;-80
2021/01/21 12:18:30;;;;;;;10.07;2.97;;;;;;;;;;4983307;28;20384;-83
2021/01/21 12:20:56;;;;;;;9.40;2.87;;;;;;;;;;4981358;28;20094;-82
2021/01/21 12:23:22;;;;;;;11.90;2.60;;;;;;;;;;4967142;28;20039;-82
2021/01/21 12:25:48;;;;;;;8.63;1.43;;;;;;;;;;4967994;28;20468;-83
2021/01/21 12:28:15;;;;;;;12.33;3.03;;;;;;;;;;4967028;28;20046;-79
2021/01/21 12:30:41;;;;;;;14.17;3.43;;;;;;;;;;4984457;28;20053;-81
2021/01/21 12:33:07;;;;;;;10.30;3.30;;;;;;;;;;4964838;28;20492;-81
2021/01/21 12:35:33;;;;;;;7.20;2.00;;;;;;;;;;4966667;28;20129;-82
2021/01/21 12:37:59;;;;;;;8.13;2.17;;;;;;;;;;4967644;28;20031;-81
2021/01/21 12:40:25;;;;;;;10.17;2.60;;;;;;;;;;4968455;28;20046;-81
2021/01/21 12:42:51;;;;;;;8.17;2.07;;;;;;;;;;4969315;28;20038;-81
2021/01/21 12:45:17;;;;;;;11.30;1.83;;;;;;;;;;4970827;28;20035;-82
2021/01/21 12:47:43;;;;;;;10.77;2.50;;;;;;;;;;4972403;28;20440;-82
2021/01/21 12:50:34;;;;;;;10.10;2.63;;;;;;;;;;4972107;28;20107;-80
2021/01/21 12:53:01;;;;;;;9.83;1.93;;;;;;;;;;4967680;28;20123;-81
2021/01/21 12:55:27;;;;;;;14.10;2.03;;;;;;;;;;4969609;28;20035;-81
2021/01/21 12:57:53;;;;;;;5.47;1.50;;;;;;;;;;4968810;28;20035;-81
2021/01/21 13:00:19;;;;;;;10.90;1.83;;;;;;;;;;4988368;28;20034;-80
2021/01/21 13:02:45;;;;;;;7.27;2.20;;;;;;;;;;4988983;28;20038;-81
2021/01/21 13:05:11;;;;;;;7.40;1.87;;;;;;;;;;4962698;28;20035;-84
2021/01/21 13:07:37;;;;;;;6.10;1.77;;;;;;;;;;4980003;28;20035;-81
2021/01/21 13:10:04;;;;;;;9.70;1.80;;;;;;;;;;4965110;28;20054;-79
2021/01/21 13:12:30;;;;;;;9.50;2.33;;;;;;;;;;4957773;28;20054;-82
2021/01/21 13:14:56;;;;;;;11.07;2.43;;;;;;;;;;4957374;28;20065;-81
2021/01/21 13:17:22;;;;;;;8.83;1.97;;;;;;;;;;4973182;28;20039;-81
2021/01/21 13:19:48;;;;;;;8.90;2.50;;;;;;;;;;4987563;28;20035;-82
2021/01/21 13:22:14;;;;;;;9.93;1.63;;;;;;;;;;4970193;28;20034;-82
2021/01/21 13:24:40;;;;;;;11.73;1.80;;;;;;;;;;4950904;28;20122;-80
2021/01/21 13:27:06;;;;;;;9.27;2.33;;;;;;;;;;4950830;28;20485;-80
2021/01/21 13:29:32;;;;;;;10.70;2.37;;;;;;;;;;4968695;28;20110;-84
2021/01/21 13:31:58;;;;;;;9.80;2.20;;;;;;;;;;4968131;28;20054;-81
2021/01/21 13:37:30;;;;;;;9.23;2.03;;;;;;;;;;4985609;28;20078;-81
2021/01/21 13:40:14;;;;;;;11.60;2.10;;;;;;;;;;4969392;28;20050;-81
2021/01/21 13:42:40;;;;;;;13.90;2.40;;;;;;;;;;4969842;28;20073;-79
2021/01/21 13:45:06;;;;;;;10.50;2.23;;;;;;;;;;4973761;28;20030;-80
2021/01/21 13:47:45;;;;;;;11.80;2.63;;;;;;;;;;4959774;28;20062;-80
2021/01/21 13:50:14;;;;;;;12.83;2.53;;;;;;;;;;4974187;28;20045;-82
2021/01/21 13:52:41;;;;;;;8.53;1.90;;;;;;;;;;4995500;28;20155;-80
2021/01/21 13:55:07;;;;;;;11.03;2.97;;;;;;;;;;4973028;28;20078;-81
2021/01/21 13:57:33;;;;;;;10.00;2.10;;;;;;;;;;4970086;28;20038;-82
2021/01/21 14:00:00;;;;;;;10.30;2.27;;;;;;;;;;4969221;28;20035;-82
2021/01/21 14:02:26;;;;;;;11.20;2.17;;;;;;;;;;4970165;28;20102;-84
2021/01/21 14:04:52;;;;;;;10.90;2.53;;;;;;;;;;4975795;28;20035;-80
2021/01/21 14:07:18;;;;;;;12.17;2.30;;;;;;;;;;4975340;28;20038;-83
2021/01/21 14:09:44;;;;;;;8.53;2.10;;;;;;;;;;4971721;28;20043;-82
2021/01/21 14:12:11;;;;;;;10.93;1.87;;;;;;;;;;4972157;28;20054;-81
2021/01/21 14:14:37;;;;;;;9.27;2.20;;;;;;;;;;4973707;28;20050;-82
2021/01/21 14:17:03;;;;;;;9.00;1.60;;;;;;;;;;4971590;28;20038;-82
2021/01/21 14:19:29;;;;;;;11.70;3.10;;;;;;;;;;4972123;28;20031;-82
2021/01/21 14:21:55;;;;;;;12.37;2.73;;;;;;;;;;4972883;28;20058;-82
2021/01/21 14:24:24;;;;;;;8.67;1.90;;;;;;;;;;4971304;28;20388;-81
2021/01/21 14:26:50;;;;;;;12.30;1.70;;;;;;;;;;4969595;28;20066;-82
2021/01/21 14:29:17;;;;;;;11.73;2.53;;;;;;;;;;4989035;28;20041;-82
2021/01/21 14:31:43;;;;;;;9.70;2.27;;;;;;;;;;4975578;28;20039;-83
2021/01/21 14:34:09;;;;;;;12.45;3.00;;;;;;;;;;4965075;28;20027;-83
2021/01/21 14:36:35;;;;;;;8.13;1.67;;;;;;;;;;4982432;28;20041;-80
2021/01/21 14:39:02;;;;;;;6.93;1.57;;;;;;;;;;4980824;28;20062;-80
2021/01/21 14:41:29;;;;;;;9.93;2.47;;;;;;;;;;4975739;28;20054;-81
2021/01/21 14:43:55;;;;;;;8.57;2.50;;;;;;;;;;4983841;28;20074;-83
2021/01/21 14:46:21;;;;;;;12.10;1.90;;;;;;;;;;4966755;28;20035;-82
2021/01/21 14:48:47;;;;;;;16.60;2.40;;;;;;;;;;4986669;28;20058;-80
2021/01/21 14:51:13;;;;;;;12.07;1.50;;;;;;;;;;4967937;28;20039;-80
2021/01/21 14:53:40;;;;;;;11.10;2.43;;;;;;;;;;4987341;28;20039;-82